KAAF/AAF METAR and TAF weather

Enter ICAO airport designator
Station Type Date Time Source
KAAF METAR 2018/12/10 18:53 UTC NOAA

KAAF 101853Z AUTO 34007KT 10SM OVC021 08/03 A3014 RMK AO2 SLP205 T00780033


Station Type Date Time Source
KAAF Decoded METAR 2018/12/10 18:53 UTC NOAA

APALACHICOLA MUNICIPAL AIRPORT, FL, United States (KAAF) 29-44N 085-01W 5M
Dec 10, 2018 - 01:53 PM EST / 2018.12.10 1853 UTC
Wind: from the NNW (340 degrees) at 8 MPH (7 KT):0
Visibility: 10 mile(s):0
Sky conditions: overcast
Temperature: 46.0 F (7.8 C)
Dew Point: 37.9 F (3.3 C)
Relative Humidity: 73%
Pressure (altimeter): 30.14 in. Hg (1020 hPa)
ob: KAAF 101853Z AUTO 34007KT 10SM OVC021 08/03 A3014 RMK AO2 SLP205 T00780033
cycle: 19

Station Type Date Time Source
KAAF TAF UTC NOAA

Error!


Example: see airport list